Time;durP1;ratioP1;P1;durP2;ratioP2;P2;SDS_P1;SDS_P2;PMS_P1;PMS_P2;Temp;Humidity;BMP_temperature;BMP_pressure;BME280_temperature;BME280_humidity;BME280_pressure;Samples;Min_cycle;Max_cycle;Signal;HPM_P1;HPM_P2
2023/05/01 00:00:48;;;;;;;11.32;9.50;;;;;;;17.00;63.08;98621.81;5092077;28;20451;-47
2023/05/01 00:03:16;;;;;;;13.40;9.38;;;;;;;16.97;62.81;98623.09;5090555;28;20074;-47
2023/05/01 00:05:45;;;;;;;12.27;8.50;;;;;;;16.91;63.00;98618.00;5090458;28;20127;-47
2023/05/01 00:08:11;;;;;;;11.30;8.25;;;;;;;16.96;63.27;98618.03;5091706;28;20034;-47
2023/05/01 00:10:37;;;;;;;11.20;8.32;;;;;;;17.15;63.26;98616.72;5073575;28;20564;-47
2023/05/01 00:13:03;;;;;;;12.43;7.20;;;;;;;17.51;63.35;98613.75;5090419;28;20036;-47
2023/05/01 00:15:30;;;;;;;11.85;8.45;;;;;;;17.89;62.36;98612.88;5091664;28;20030;-47
2023/05/01 00:17:55;;;;;;;12.52;7.38;;;;;;;18.18;61.54;98609.97;5090336;28;20623;-47
2023/05/01 00:20:24;;;;;;;9.25;7.38;;;;;;;18.44;60.86;98605.66;5091607;28;20118;-47
2023/05/01 00:22:50;;;;;;;17.63;7.60;;;;;;;18.62;60.12;98601.81;5091644;28;20470;-47
2023/05/01 00:25:15;;;;;;;12.57;7.53;;;;;;;18.83;59.55;98607.31;5090218;28;20051;-47
2023/05/01 00:27:42;;;;;;;93.35;84.25;;;;;;;19.03;58.84;98596.00;5091263;28;20406;-45
2023/05/01 00:30:08;;;;;;;24.95;18.30;;;;;;;19.15;58.11;98591.25;5091516;28;20020;-45
2023/05/01 00:32:33;;;;;;;32.00;24.23;;;;;;;19.22;57.76;98596.38;5090191;28;20031;-44
2023/05/01 00:34:59;;;;;;;1999.90;999.90;;;;;;;19.27;57.26;98589.19;5091498;28;20024;-44
2023/05/01 00:37:25;;;;;;;1999.90;999.35;;;;;;;19.26;57.37;98592.94;5091871;28;20137;-45
2023/05/01 00:39:51;;;;;;;1850.13;867.00;;;;;;;19.02;57.60;98592.53;5094287;28;20032;-44
2023/05/01 00:42:16;;;;;;;340.27;237.02;;;;;;;19.08;57.16;98588.84;5094273;28;20086;-45
2023/05/01 00:44:42;;;;;;;294.25;209.57;;;;;;;19.01;57.18;98593.59;5095276;28;20031;-44
2023/05/01 00:47:08;;;;;;;165.57;129.77;;;;;;;18.89;57.28;98585.78;5094145;28;20024;-45
2023/05/01 00:49:34;;;;;;;123.82;91.80;;;;;;;18.86;57.25;98596.16;5095103;28;20025;-44
2023/05/01 00:52:00;;;;;;;49.25;32.13;;;;;;;18.59;56.94;98589.03;5094063;28;20100;-45
2023/05/01 00:54:27;;;;;;;59.78;32.22;;;;;;;18.10;58.21;98582.00;5093713;28;20036;-45
2023/05/01 00:56:53;;;;;;;56.30;35.05;;;;;;;17.75;59.41;98585.09;5095223;28;20101;-44
2023/05/01 00:59:19;;;;;;;28.52;20.40;;;;;;;17.51;60.08;98582.69;5093937;28;20411;-44
2023/05/01 01:01:46;;;;;;;40.83;26.42;;;;;;;17.41;60.89;98579.13;5093878;28;20728;-45
2023/05/01 01:04:12;;;;;;;14.88;12.30;;;;;;;17.31;60.83;98577.94;5093874;28;20104;-44
2023/05/01 01:06:59;;;;;;;29.65;16.30;;;;;;;17.21;61.44;98579.69;5094769;28;20023;-45
2023/05/01 01:09:56;;;;;;;22.83;11.68;;;;;;;17.48;60.82;98571.78;5095030;28;20095;-44
2023/05/01 01:12:21;;;;;;;22.88;11.52;;;;;;;17.78;59.68;98571.28;5093401;28;20028;-44
2023/05/01 01:15:05;;;;;;;40.15;17.38;;;;;;;17.98;59.42;98560.09;5093356;28;20029;-44
2023/05/01 01:17:37;;;;;;;16.73;10.50;;;;;;;18.28;58.30;98566.75;5094659;28;20024;-44
2023/05/01 01:20:16;;;;;;;30.95;17.73;;;;;;;18.42;57.65;98559.16;5093339;28;20025;-44
2023/05/01 01:22:48;;;;;;;25.33;12.05;;;;;;;18.52;57.30;98552.03;5094624;28;20078;-44
2023/05/01 01:25:47;;;;;;;44.22;20.73;;;;;;;18.72;56.57;98556.69;5094600;28;20401;-44
2023/05/01 01:28:36;;;;;;;13.63;7.18;;;;;;;18.92;55.67;98550.72;5094185;28;20043;-44
2023/05/01 01:31:12;;;;;;;8.38;5.88;;;;;;;18.94;54.98;98553.13;5055719;28;20597;-44
2023/05/01 01:33:55;;;;;;;12.88;6.05;;;;;;;18.87;54.72;98550.69;5094358;28;20024;-44
2023/05/01 01:36:29;;;;;;;9.73;5.57;;;;;;;18.93;54.73;98551.53;5094631;28;20046;-44
2023/05/01 01:39:06;;;;;;;5.68;5.00;;;;;;;19.02;54.20;98555.31;5093194;28;20031;-44
2023/05/01 01:41:37;;;;;;;7.93;5.22;;;;;;;18.96;54.34;98543.03;5094157;28;20027;-44
2023/05/01 01:44:19;;;;;;;14.73;5.57;;;;;;;19.06;53.85;98552.94;5094238;28;20043;-44
2023/05/01 01:46:47;;;;;;;14.95;5.70;;;;;;;19.26;53.53;98546.91;5094373;28;20510;-45
2023/05/01 01:49:19;;;;;;;8.90;4.95;;;;;;;19.46;52.77;98549.63;5092009;28;20035;-44
2023/05/01 01:51:46;;;;;;;12.02;4.57;;;;;;;19.59;52.21;98556.31;5094058;28;20039;-44
2023/05/01 01:54:15;;;;;;;13.20;6.15;;;;;;;19.66;51.50;98550.72;5093002;28;20116;-45
2023/05/01 01:56:43;;;;;;;7.30;5.70;;;;;;;19.62;51.52;98550.47;5093944;28;20185;-44
2023/05/01 01:59:10;;;;;;;14.32;6.88;;;;;;;19.71;51.07;98545.44;5093837;28;20038;-44
2023/05/01 02:01:40;;;;;;;13.98;5.50;;;;;;;19.74;50.89;98544.94;5093772;28;20472;-44
2023/05/01 02:04:07;;;;;;;13.05;4.40;;;;;;;19.74;50.46;98545.72;5094052;28;20032;-44
2023/05/01 02:06:35;;;;;;;9.65;4.45;;;;;;;19.73;50.36;98553.97;5092337;28;20440;-45
2023/05/01 02:09:05;;;;;;;12.68;5.50;;;;;;;19.68;50.53;98546.75;5093580;28;20035;-45
2023/05/01 02:11:31;;;;;;;11.20;4.35;;;;;;;19.71;50.32;98548.91;5093518;28;20035;-44
2023/05/01 02:14:02;;;;;;;8.52;4.13;;;;;;;19.56;50.56;98544.34;5093545;28;20020;-45
2023/05/01 02:16:30;;;;;;;9.13;4.30;;;;;;;19.23;50.50;98553.53;5093465;28;20057;-45
2023/05/01 02:18:56;;;;;;;5.97;4.10;;;;;;;18.87;50.93;98548.03;5093495;28;20086;-44
2023/05/01 02:21:23;;;;;;;7.35;4.05;;;;;;;18.52;51.94;98545.94;5093319;28;20150;-44
2023/05/01 02:23:49;;;;;;;7.72;4.32;;;;;;;18.31;52.97;98548.44;5093395;28;20019;-44
2023/05/01 02:26:17;;;;;;;11.15;4.70;;;;;;;18.19;53.42;98544.34;5058858;28;20020;-44
2023/05/01 02:28:43;;;;;;;9.55;4.57;;;;;;;18.17;53.60;98549.94;5093043;28;20498;-44
2023/05/01 02:31:09;;;;;;;5.72;4.03;;;;;;;18.13;53.71;98541.66;5093144;28;20020;-44
2023/05/01 02:33:35;;;;;;;11.02;4.30;;;;;;;18.15;53.78;98544.88;5093178;28;20043;-44
2023/05/01 02:36:01;;;;;;;9.48;4.15;;;;;;;18.05;53.65;98543.97;5093479;28;20466;-44
2023/05/01 02:38:27;;;;;;;9.48;4.20;;;;;;;18.00;53.83;98543.94;5093371;28;20031;-45
2023/05/01 02:40:56;;;;;;;7.38;4.00;;;;;;;18.02;53.82;98547.94;5093102;28;20022;-44
2023/05/01 02:43:25;;;;;;;7.45;4.28;;;;;;;18.09;54.06;98553.84;5091733;28;20171;-45
2023/05/01 02:45:53;;;;;;;15.15;4.47;;;;;;;18.18;54.04;98548.88;5091974;28;20508;-45
2023/05/01 02:48:24;;;;;;;13.20;4.68;;;;;;;18.21;53.80;98552.84;5092852;28;20399;-44
2023/05/01 02:50:51;;;;;;;7.82;4.75;;;;;;;18.24;53.86;98547.06;5091579;28;20109;-44
2023/05/01 02:53:17;;;;;;;8.20;4.22;;;;;;;18.28;53.58;98553.47;5092811;28;20040;-44
2023/05/01 02:55:43;;;;;;;8.07;4.70;;;;;;;18.04;53.78;98553.78;5092705;28;20042;-44
2023/05/01 02:58:19;;;;;;;9.32;5.15;;;;;;;17.87;54.39;98547.81;5091384;28;20019;-45
2023/05/01 03:00:48;;;;;;;6.68;4.80;;;;;;;17.91;54.98;98544.38;5091406;28;20466;-44
2023/05/01 03:03:15;;;;;;;8.18;4.28;;;;;;;17.95;54.66;98550.00;5091329;28;20031;-44
2023/05/01 03:05:40;;;;;;;14.43;5.38;;;;;;;17.89;54.70;98538.53;5091521;28;20036;-45
2023/05/01 03:08:06;;;;;;;6.85;4.25;;;;;;;17.68;54.63;98539.34;5092696;28;20092;-44
2023/05/01 03:10:33;;;;;;;9.68;4.82;;;;;;;17.69;55.27;98538.31;5092457;28;20020;-44
2023/05/01 03:12:59;;;;;;;10.63;4.90;;;;;;;18.03;54.89;98536.28;5092765;28;20497;-44
2023/05/01 03:15:25;;;;;;;9.73;4.82;;;;;;;18.40;54.11;98534.69;5091366;28;20028;-44
2023/05/01 03:17:50;;;;;;;8.38;4.60;;;;;;;18.78;53.18;98533.59;5092329;28;20031;-44
2023/05/01 03:20:16;;;;;;;12.80;4.97;;;;;;;19.05;52.50;98536.16;5092281;28;20077;-44
2023/05/01 03:22:42;;;;;;;11.68;4.85;;;;;;;19.18;51.95;98544.75;5090981;28;20020;-44
2023/05/01 03:25:09;;;;;;;10.75;4.63;;;;;;;19.21;51.53;98539.69;5092375;28;20027;-45
2023/05/01 03:27:34;;;;;;;11.98;5.18;;;;;;;19.19;51.56;98541.78;5092494;28;20070;-45
2023/05/01 03:30:03;;;;;;;10.43;4.25;;;;;;;19.18;51.41;98539.41;5090879;28;20050;-45
2023/05/01 03:32:29;;;;;;;11.80;5.20;;;;;;;19.07;51.32;98536.69;5092073;28;20040;-45
2023/05/01 03:34:54;;;;;;;16.85;5.47;;;;;;;19.05;51.50;98538.81;5090807;28;20039;-44
2023/05/01 03:37:20;;;;;;;9.50;5.40;;;;;;;19.01;51.29;98545.72;5092340;28;20046;-45
2023/05/01 03:39:46;;;;;;;10.48;5.85;;;;;;;18.84;51.62;98542.44;5092006;28;20028;-44
2023/05/01 03:42:11;;;;;;;9.18;5.90;;;;;;;18.88;51.72;98544.31;5092011;28;20619;-44
2023/05/01 03:44:37;;;;;;;16.70;5.63;;;;;;;18.85;51.60;98546.69;5090737;28;20017;-45
2023/05/01 03:47:03;;;;;;;9.57;5.60;;;;;;;18.71;52.21;98544.47;5092283;28;20022;-44
2023/05/01 03:49:29;;;;;;;12.60;5.40;;;;;;;18.57;52.40;98545.94;5090878;28;20028;-44
2023/05/01 03:51:55;;;;;;;8.85;5.05;;;;;;;18.51;52.49;98549.63;5091915;28;20127;-45
2023/05/01 03:54:21;;;;;;;8.30;4.90;;;;;;;18.51;52.90;98546.97;5091804;28;20024;-44
2023/05/01 03:56:46;;;;;;;10.32;4.45;;;;;;;18.60;52.36;98547.31;5091896;28;20401;-44
2023/05/01 03:59:13;;;;;;;11.15;4.85;;;;;;;18.74;52.46;98543.16;5090764;28;20028;-44
2023/05/01 04:01:39;;;;;;;6.55;5.07;;;;;;;18.85;51.41;98546.69;5090787;28;20048;-44
2023/05/01 04:04:05;;;;;;;10.23;5.28;;;;;;;18.64;52.02;98541.22;5091731;28;20031;-45
2023/05/01 04:06:31;;;;;;;12.65;5.45;;;;;;;18.74;52.18;98535.19;5091775;28;20024;-45
2023/05/01 04:08:56;;;;;;;15.88;6.03;;;;;;;18.94;51.88;98545.94;5091614;28;20028;-45
2023/05/01 04:11:22;;;;;;;12.05;5.28;;;;;;;19.10;51.53;98544.16;5091699;28;20059;-44
2023/05/01 04:13:48;;;;;;;11.38;5.43;;;;;;;19.29;51.08;98538.38;5094602;28;20017;-44
2023/05/01 04:16:13;;;;;;;11.00;4.85;;;;;;;19.39;50.63;98542.94;5095841;28;20057;-44
2023/05/01 04:18:39;;;;;;;11.98;5.63;;;;;;;19.42;50.73;98545.06;5094825;28;20028;-44
2023/05/01 04:21:05;;;;;;;20.40;5.97;;;;;;;19.42;50.65;98539.75;5095958;28;20051;-45
2023/05/01 04:23:30;;;;;;;10.60;4.63;;;;;;;19.49;50.41;98540.31;5095708;28;20039;-44
2023/05/01 04:25:56;;;;;;;31.75;5.63;;;;;;;19.41;50.38;98546.94;5095669;28;20394;-45
2023/05/01 04:28:22;;;;;;;16.48;5.68;;;;;;;19.23;49.99;98545.53;5095283;28;20044;-44
2023/05/01 04:30:47;;;;;;;13.77;6.38;;;;;;;18.64;51.10;98553.72;5095574;28;20024;-45
2023/05/01 04:33:13;;;;;;;19.27;5.38;;;;;;;18.20;52.51;98557.38;5095523;28;20385;-44
2023/05/01 04:35:40;;;;;;;11.25;5.03;;;;;;;18.10;53.21;98558.09;5094137;28;20106;-44
2023/05/01 04:38:07;;;;;;;10.77;5.70;;;;;;;17.87;53.38;98561.09;5094404;28;20085;-45
2023/05/01 04:40:33;;;;;;;14.35;5.63;;;;;;;17.66;54.03;98555.50;5094347;28;20021;-44
2023/05/01 04:42:59;;;;;;;12.65;5.25;;;;;;;17.56;54.54;98560.72;5094004;28;20039;-44
2023/05/01 04:45:25;;;;;;;16.23;5.97;;;;;;;17.52;55.01;98562.25;5094016;28;20037;-44
2023/05/01 04:47:51;;;;;;;11.13;5.35;;;;;;;17.51;55.36;98565.97;5077098;28;20063;-45
2023/05/01 04:50:16;;;;;;;18.95;6.40;;;;;;;17.77;55.35;98575.81;5095068;28;20543;-44
2023/05/01 04:52:42;;;;;;;23.35;6.10;;;;;;;18.16;54.75;98566.91;5095195;28;20091;-44
2023/05/01 04:55:08;;;;;;;15.10;5.68;;;;;;;18.52;53.61;98569.84;5095073;28;20016;-44
2023/05/01 04:57:34;;;;;;;17.70;5.03;;;;;;;18.63;52.65;98571.50;5095034;28;20024;-45
2023/05/01 05:00:00;;;;;;;18.83;5.05;;;;;;;18.56;52.73;98573.59;5095046;28;20031;-44
2023/05/01 05:02:26;;;;;;;16.02;4.80;;;;;;;18.49;52.56;98573.81;5093675;28;20028;-45
2023/05/01 05:04:58;;;;;;;15.45;4.95;;;;;;;18.34;52.62;98579.00;5094917;28;20042;-45
2023/05/01 05:07:23;;;;;;;6.47;4.90;;;;;;;17.93;52.78;98578.66;5093550;28;20115;-44
2023/05/01 05:09:49;;;;;;;18.00;4.97;;;;;;;17.50;54.25;98577.63;5093421;28;20122;-45
2023/05/01 05:12:15;;;;;;;13.23;4.78;;;;;;;17.61;54.72;98582.00;5094780;28;20059;-44
2023/05/01 05:14:42;;;;;;;11.68;4.50;;;;;;;17.67;54.30;98583.66;5094736;28;20024;-44
2023/05/01 05:17:08;;;;;;;8.75;4.30;;;;;;;17.35;55.04;98573.75;5094880;28;20028;-44
2023/05/01 05:19:34;;;;;;;8.48;4.60;;;;;;;17.34;55.24;98588.09;5094698;28;20055;-44
2023/05/01 05:22:03;;;;;;;9.13;5.45;;;;;;;17.19;55.40;98579.91;5093463;28;20067;-44
2023/05/01 05:24:28;;;;;;;12.50;5.05;;;;;;;17.35;55.72;98578.25;5093286;28;20038;-44
2023/05/01 05:26:54;;;;;;;12.13;5.03;;;;;;;17.49;55.19;98579.50;5094449;28;20099;-44
2023/05/01 05:29:20;;;;;;;14.35;4.93;;;;;;;17.68;55.45;98582.59;5092871;28;20048;-44
2023/05/01 05:31:46;;;;;;;13.20;4.90;;;;;;;18.03;54.92;98584.06;5094340;28;20051;-44
2023/05/01 05:34:12;;;;;;;9.40;5.00;;;;;;;18.33;53.87;98582.72;5093016;28;20024;-45
2023/05/01 05:36:38;;;;;;;5.40;3.88;;;;;;;18.34;53.12;98594.97;5094313;28;20024;-44
2023/05/01 05:39:04;;;;;;;6.47;5.32;;;;;;;17.99;53.34;98598.91;5094211;28;20034;-44
2023/05/01 05:41:29;;;;;;;13.18;5.82;;;;;;;17.51;54.46;98600.47;5094249;28;20056;-45
2023/05/01 05:43:55;;;;;;;8.82;4.65;;;;;;;17.30;55.16;98600.19;5092911;28;20020;-44
2023/05/01 05:46:21;;;;;;;18.92;5.60;;;;;;;17.18;55.81;98610.13;5092775;28;20380;-44
2023/05/01 05:48:46;;;;;;;8.20;5.03;;;;;;;17.16;55.66;98613.03;5092764;28;20024;-44
2023/05/01 05:51:12;;;;;;;9.85;4.97;;;;;;;17.04;56.44;98614.19;5092744;28;20052;-44
2023/05/01 05:53:38;;;;;;;8.30;4.53;;;;;;;16.97;57.01;98617.81;5094291;28;20026;-44
2023/05/01 05:56:04;;;;;;;9.65;5.05;;;;;;;17.31;57.15;98615.09;5093991;28;20028;-44
2023/05/01 05:58:30;;;;;;;16.67;6.10;;;;;;;17.79;55.80;98615.38;5092962;28;20079;-44
2023/05/01 06:00:55;;;;;;;9.88;5.55;;;;;;;18.15;55.23;98613.13;5092470;28;20020;-44
2023/05/01 06:03:21;;;;;;;7.07;4.53;;;;;;;18.42;54.44;98614.97;5093752;28;20035;-44
2023/05/01 06:05:48;;;;;;;11.48;5.00;;;;;;;18.64;53.43;98628.16;5092433;28;20024;-44
2023/05/01 06:08:14;;;;;;;10.07;4.95;;;;;;;18.57;53.23;98617.72;5092595;28;20031;-44
2023/05/01 06:10:42;;;;;;;8.40;5.22;;;;;;;18.51;53.06;98622.22;5093662;28;20409;-44
2023/05/01 06:13:09;;;;;;;8.65;4.55;;;;;;;18.38;53.05;98621.81;5092284;28;20453;-44
2023/05/01 06:15:37;;;;;;;16.45;5.45;;;;;;;18.35;54.02;98612.47;5093531;28;20016;-44
2023/05/01 06:18:03;;;;;;;7.57;4.88;;;;;;;18.79;53.31;98612.31;5092175;28;20028;-44
2023/05/01 06:20:29;;;;;;;11.00;5.45;;;;;;;19.16;52.48;98606.19;5092113;28;20028;-44
2023/05/01 06:22:56;;;;;;;14.90;4.97;;;;;;;19.56;51.38;98621.53;5092315;28;20020;-44
2023/05/01 06:25:25;;;;;;;11.77;5.30;;;;;;;19.85;50.21;98610.47;5093383;28;20024;-44
2023/05/01 06:27:51;;;;;;;8.82;4.78;;;;;;;19.78;50.25;98617.91;5091898;28;20044;-44
2023/05/01 06:30:18;;;;;;;10.25;5.90;;;;;;;19.88;49.97;98614.44;5093188;28;20409;-44
2023/05/01 06:32:45;;;;;;;15.45;5.60;;;;;;;20.09;49.47;98621.44;5091928;28;20056;-45
2023/05/01 06:35:11;;;;;;;16.42;5.50;;;;;;;20.35;49.12;98611.59;5091512;28;20024;-44
2023/05/01 06:37:37;;;;;;;13.10;6.00;;;;;;;20.56;47.83;98622.25;5093412;28;20432;-44
2023/05/01 06:40:09;;;;;;;9.50;4.57;;;;;;;20.60;47.25;98617.22;5093045;28;20085;-44
2023/05/01 06:42:38;;;;;;;13.23;5.88;;;;;;;20.68;47.21;98620.16;5093045;28;20112;-44
2023/05/01 06:45:06;;;;;;;6.60;4.95;;;;;;;20.91;46.90;98612.66;5091569;28;20103;-45
2023/05/01 06:47:32;;;;;;;12.82;4.78;;;;;;;20.86;46.33;98626.78;5091641;28;20021;-44
2023/05/01 06:49:57;;;;;;;12.38;4.82;;;;;;;20.80;46.28;98627.88;5092848;28;20047;-44
2023/05/01 06:52:23;;;;;;;6.88;5.15;;;;;;;20.25;47.32;98629.44;5093064;28;20080;-44
2023/05/01 06:54:49;;;;;;;10.07;5.22;;;;;;;19.91;48.34;98630.72;5092791;28;20020;-44
2023/05/01 06:57:15;;;;;;;12.00;8.75;;;;;;;19.79;48.62;98632.03;5091439;28;20081;-44
2023/05/01 06:59:41;;;;;;;6.22;4.95;;;;;;;19.64;48.69;98630.88;5092728;28;20039;-44
2023/05/01 07:02:07;;;;;;;7.30;4.30;;;;;;;19.53;49.02;98638.00;5092676;28;20028;-44
2023/05/01 07:04:32;;;;;;;7.88;4.45;;;;;;;19.83;48.73;98633.09;5092550;28;20024;-44
2023/05/01 07:06:58;;;;;;;8.88;4.95;;;;;;;20.27;47.62;98635.31;5092526;28;20081;-44
2023/05/01 07:09:24;;;;;;;9.68;4.78;;;;;;;20.63;46.59;98632.69;5091097;28;20016;-45
2023/05/01 07:11:50;;;;;;;11.13;7.28;;;;;;;21.18;45.41;98628.34;5092791;28;20066;-44
2023/05/01 07:14:16;;;;;;;10.13;6.28;;;;;;;21.81;44.10;98629.72;5091422;28;20028;-44
2023/05/01 07:16:41;;;;;;;7.40;4.78;;;;;;;22.32;42.83;98638.25;5092303;28;20119;-44
2023/05/01 07:19:07;;;;;;;8.80;5.20;;;;;;;22.67;41.82;98624.88;5092664;28;20375;-44
2023/05/01 07:21:33;;;;;;;8.68;5.00;;;;;;;22.88;41.65;98630.84;5092314;28;20027;-45
2023/05/01 07:23:58;;;;;;;11.98;5.70;;;;;;;22.93;41.03;98628.91;5092240;28;20483;-44
2023/05/01 07:26:26;;;;;;;9.20;4.45;;;;;;;23.08;40.51;98629.84;5091093;28;20028;-45
2023/05/01 07:28:51;;;;;;;10.85;4.63;;;;;;;22.99;40.48;98632.34;5091884;28;20036;-44
2023/05/01 07:31:17;;;;;;;7.38;4.45;;;;;;;22.85;40.32;98632.19;5092142;28;20028;-44
2023/05/01 07:33:43;;;;;;;13.98;5.00;;;;;;;22.53;40.87;98630.88;5074142;28;20020;-44
2023/05/01 07:36:10;;;;;;;6.50;4.82;;;;;;;22.33;41.41;98633.72;5092144;28;20021;-44
2023/05/01 07:38:35;;;;;;;15.15;5.40;;;;;;;22.26;41.87;98641.25;5090790;28;20440;-45
2023/05/01 07:41:01;;;;;;;10.98;4.82;;;;;;;22.18;41.53;98642.63;5091969;28;20024;-45
2023/05/01 07:43:27;;;;;;;10.70;5.50;;;;;;;22.09;41.75;98641.59;5092039;28;20051;-45
2023/05/01 07:46:00;;;;;;;19.63;6.60;;;;;;;21.89;41.66;98654.00;5090670;28;20501;-45
2023/05/01 07:48:27;;;;;;;8.52;7.10;;;;;;;21.75;42.25;98647.66;5089872;28;20035;-44
2023/05/01 07:50:53;;;;;;;17.27;6.63;;;;;;;21.50;42.46;98651.22;5073800;28;20078;-44
2023/05/01 07:53:21;;;;;;;5.05;4.10;;;;;;;21.42;43.25;98649.09;5090647;28;20561;-44
2023/05/01 07:55:47;;;;;;;7.28;4.97;;;;;;;21.43;43.40;98648.88;5090866;28;20032;-44
2023/05/01 07:58:12;;;;;;;15.15;5.28;;;;;;;21.37;43.39;98647.25;5090595;28;20089;-44
2023/05/01 08:00:38;;;;;;;9.52;5.38;;;;;;;21.29;43.46;98650.47;5090519;28;20581;-44
2023/05/01 08:03:04;;;;;;;6.47;5.00;;;;;;;21.16;43.65;98654.50;5091901;28;20016;-44
2023/05/01 08:05:30;;;;;;;17.85;9.25;;;;;;;21.11;44.23;98643.84;5090751;28;20066;-45
2023/05/01 08:07:57;;;;;;;9.57;6.57;;;;;;;21.06;44.15;98654.53;5092105;28;20052;-44
2023/05/01 08:10:22;;;;;;;43.53;31.38;;;;;;;21.25;44.07;98647.53;5091603;28;20026;-44
2023/05/01 08:12:48;;;;;;;144.73;106.43;;;;;;;21.67;43.52;98654.38;5091667;28;20028;-44
2023/05/01 08:15:14;;;;;;;39.45;31.85;;;;;;;22.00;42.82;98652.06;5091703;28;20482;-44
2023/05/01 08:17:40;;;;;;;8.38;6.50;;;;;;;22.35;41.42;98642.25;5090384;28;20416;-44
2023/05/01 08:20:06;;;;;;;28.40;13.23;;;;;;;22.32;41.46;98648.16;5090621;28;20039;-44
2023/05/01 08:22:32;;;;;;;13.82;7.53;;;;;;;22.38;41.66;98648.94;5107268;28;20465;-44
2023/05/01 08:24:58;;;;;;;12.98;6.65;;;;;;;22.54;41.35;98648.53;5091599;28;20108;-44
2023/05/01 08:27:23;;;;;;;14.35;6.93;;;;;;;23.00;40.47;98641.16;5090205;28;20114;-45
2023/05/01 08:29:49;;;;;;;7.63;5.68;;;;;;;23.49;39.74;98640.91;5090524;28;20021;-44
2023/05/01 08:32:17;;;;;;;8.77;4.78;;;;;;;24.89;37.94;98644.03;5091602;28;20493;-44
2023/05/01 08:34:43;;;;;;;6.32;4.55;;;;;;;26.07;35.07;98636.34;5091476;28;20421;-44
2023/05/01 08:37:08;;;;;;;9.48;4.50;;;;;;;26.69;33.95;98641.09;5091437;28;20030;-45
2023/05/01 08:39:34;;;;;;;4.40;4.00;;;;;;;27.36;32.27;98641.25;5091497;28;20058;-45
2023/05/01 08:42:00;;;;;;;5.18;4.40;;;;;;;28.14;31.42;98643.31;5091639;28;20077;-45
2023/05/01 08:44:27;;;;;;;5.45;4.03;;;;;;;28.99;29.88;98637.31;5091420;28;20028;-45
2023/05/01 08:47:16;;;;;;;5.53;4.13;;;;;;;28.97;29.79;98645.75;5090412;28;20046;-44
2023/05/01 08:49:43;;;;;;;6.28;4.93;;;;;;;29.22;29.12;98646.78;5091376;28;20118;-45
2023/05/01 08:52:13;;;;;;;11.40;6.65;;;;;;;28.90;29.13;98640.06;5091348;28;20397;-45
2023/05/01 08:54:42;;;;;;;11.38;8.20;;;;;;;28.53;29.42;98636.16;5091320;28;20417;-45
2023/05/01 08:57:10;;;;;;;6.47;4.40;;;;;;;27.87;29.39;98656.78;5091246;28;20188;-44
2023/05/01 08:59:37;;;;;;;10.15;5.40;;;;;;;26.97;31.09;98638.22;5092511;28;20063;-44
2023/05/01 09:02:04;;;;;;;8.35;4.40;;;;;;;26.29;32.43;98640.94;5093957;28;20150;-44
2023/05/01 09:04:31;;;;;;;4.45;3.67;;;;;;;26.10;32.73;98641.13;5093997;28;20028;-45
2023/05/01 09:07:01;;;;;;;10.45;4.45;;;;;;;26.20;33.26;98636.59;5095118;28;20056;-45
2023/05/01 09:09:31;;;;;;;5.95;3.70;;;;;;;26.30;32.78;98641.75;5093510;28;20515;-45
2023/05/01 09:12:04;;;;;;;6.03;4.15;;;;;;;26.07;33.00;98641.72;5095072;28;20032;-44
2023/05/01 09:14:31;;;;;;;7.90;3.90;;;;;;;26.00;33.07;98635.19;5094816;28;20024;-44
2023/05/01 09:16:56;;;;;;;8.18;3.90;;;;;;;25.94;32.95;98647.94;5094885;28;20028;-44
2023/05/01 09:19:22;;;;;;;8.10;3.70;;;;;;;25.80;32.95;98644.47;5094687;28;20119;-44
2023/05/01 09:21:48;;;;;;;5.65;3.28;;;;;;;25.76;32.93;98643.47;5094880;28;20021;-44
2023/05/01 09:24:13;;;;;;;4.30;3.13;;;;;;;25.78;32.91;98652.03;5094545;28;20449;-44
2023/05/01 09:26:40;;;;;;;7.55;3.50;;;;;;;25.90;31.92;98646.97;5094536;28;20023;-44
2023/05/01 09:29:09;;;;;;;8.85;3.28;;;;;;;25.70;32.26;98645.47;5094435;28;20135;-43
2023/05/01 09:31:35;;;;;;;4.38;2.75;;;;;;;25.79;31.23;98642.84;5094698;28;20032;-44
2023/05/01 09:34:05;;;;;;;3.88;2.78;;;;;;;26.95;29.63;98634.25;5094654;28;20393;-44
2023/05/01 09:36:33;;;;;;;8.50;3.05;;;;;;;28.14;27.97;98625.22;5094348;28;20035;-44
2023/05/01 09:39:00;;;;;;;5.40;3.00;;;;;;;28.29;27.59;98643.63;5093341;28;20028;-43
2023/05/01 09:41:27;;;;;;;6.90;3.15;;;;;;;28.60;27.60;98633.78;5094226;28;20061;-44
2023/05/01 09:43:54;;;;;;;6.25;2.67;;;;;;;29.75;26.54;98635.72;5094244;28;20465;-44
2023/05/01 09:46:22;;;;;;;12.00;3.30;;;;;;;31.18;24.46;98626.41;5094135;28;20109;-44
2023/05/01 09:48:53;;;;;;;4.50;2.72;;;;;;;31.78;23.64;98629.44;5092999;28;20024;-44
2023/05/01 09:51:30;;;;;;;6.93;2.78;;;;;;;32.62;22.82;98621.34;5092773;28;20056;-45
2023/05/01 09:53:57;;;;;;;3.20;2.78;;;;;;;33.41;21.27;98627.94;5092715;28;20225;-44
2023/05/01 09:56:26;;;;;;;4.53;3.08;;;;;;;32.45;22.40;98641.41;5093908;28;20024;-44
2023/05/01 09:58:53;;;;;;;9.93;3.42;;;;;;;30.80;24.15;98639.09;5076091;28;20032;-44
2023/05/01 10:01:40;;;;;;;6.80;2.45;;;;;;;29.58;25.38;98653.63;5093895;28;20024;-44
2023/05/01 10:04:07;;;;;;;4.30;3.08;;;;;;;28.71;26.31;98655.81;5093827;28;20028;-43
2023/05/01 10:06:33;;;;;;;13.25;3.20;;;;;;;28.61;26.86;98654.25;5094016;28;20160;-43
2023/05/01 10:08:59;;;;;;;8.65;3.05;;;;;;;28.37;27.08;98652.84;5092606;28;20501;-44
2023/05/01 10:11:25;;;;;;;6.95;2.55;;;;;;;28.02;26.80;98652.84;5091654;28;20020;-44
2023/05/01 10:14:08;;;;;;;5.70;2.60;;;;;;;27.34;28.06;98662.34;5093529;28;20103;-44
2023/05/01 10:16:36;;;;;;;6.15;2.72;;;;;;;27.02;28.66;98656.16;5092495;28;20114;-44
2023/05/01 10:19:02;;;;;;;7.30;3.47;;;;;;;27.00;29.57;98661.06;5092469;28;20024;-44
2023/05/01 10:21:29;;;;;;;4.20;2.60;;;;;;;27.00;29.38;98664.53;5092393;28;20036;-44
2023/05/01 10:23:56;;;;;;;9.73;2.58;;;;;;;26.90;28.36;98649.44;5093470;28;20174;-44
2023/05/01 10:26:22;;;;;;;5.68;2.53;;;;;;;26.67;28.58;98655.97;5093313;28;20035;-43
2023/05/01 10:28:48;;;;;;;8.88;3.13;;;;;;;27.08;28.89;98665.69;5091707;28;20067;-44
2023/05/01 10:31:15;;;;;;;5.25;2.38;;;;;;;27.43;27.72;98660.47;5093274;28;20020;-44
2023/05/01 10:33:45;;;;;;;3.03;2.30;;;;;;;27.43;27.46;98660.47;5092228;28;20028;-44
2023/05/01 10:36:20;;;;;;;7.43;2.72;;;;;;;27.20;27.68;98665.88;5093127;28;20028;-44
2023/05/01 10:38:47;;;;;;;6.00;2.50;;;;;;;27.05;27.53;98661.72;5093193;28;20536;-44
2023/05/01 10:41:15;;;;;;;5.70;2.70;;;;;;;27.03;28.17;98663.13;5091732;28;20024;-43
2023/05/01 10:43:42;;;;;;;7.30;2.80;;;;;;;26.99;27.82;98654.88;5093029;28;20024;-43
2023/05/01 10:46:08;;;;;;;4.18;2.33;;;;;;;27.40;28.18;98661.09;5091955;28;20039;-43
2023/05/01 10:48:39;;;;;;;3.72;2.10;;;;;;;28.15;27.82;98655.69;5092851;28;20394;-44
2023/05/01 10:51:16;;;;;;;3.30;2.40;;;;;;;29.41;26.56;98649.06;5092922;28;20081;-44
2023/05/01 10:53:44;;;;;;;6.30;2.70;;;;;;;30.25;25.32;98651.88;5091851;28;20039;-44
2023/05/01 10:56:29;;;;;;;2.80;1.77;;;;;;;31.62;23.85;98642.91;5091746;28;20039;-44
2023/05/01 10:59:04;;;;;;;4.47;2.15;;;;;;;32.77;22.29;98641.50;5092749;28;20024;-44
2023/05/01 11:01:44;;;;;;;2.25;1.80;;;;;;;34.19;21.01;98638.97;5092560;28;20036;-45
2023/05/01 11:04:25;;;;;;;3.47;1.63;;;;;;;34.10;19.11;98630.19;5092710;28;20028;-44
2023/05/01 11:06:57;;;;;;;5.15;2.05;;;;;;;34.24;18.98;98616.88;5092836;28;20031;-44
2023/05/01 11:09:39;;;;;;;4.28;2.22;;;;;;;34.45;18.99;98618.41;5092580;28;20031;-45
2023/05/01 11:12:07;;;;;;;6.47;2.05;;;;;;;34.39;18.60;98626.09;5092698;28;20413;-45
2023/05/01 11:14:56;;;;;;;3.38;1.88;;;;;;;34.22;19.45;98613.72;5091476;28;20554;-44
2023/05/01 11:17:42;;;;;;;6.60;2.40;;;;;;;34.47;18.71;98619.66;5092679;28;20085;-45
2023/05/01 11:20:32;;;;;;;4.53;2.00;;;;;;;34.32;18.42;98613.13;5092327;28;20028;-45
2023/05/01 11:22:58;;;;;;;3.75;1.80;;;;;;;34.65;18.58;98617.25;5091338;28;20103;-45
2023/05/01 11:25:32;;;;;;;5.15;1.90;;;;;;;34.76;18.09;98609.25;5092361;28;20443;-45
2023/05/01 11:28:02;;;;;;;7.68;2.03;;;;;;;34.74;17.97;98615.06;5090885;28;20036;-44
2023/05/01 11:30:38;;;;;;;4.97;1.80;;;;;;;34.50;17.75;98620.84;5092137;28;20061;-44
2023/05/01 11:33:04;;;;;;;3.30;1.88;;;;;;;33.63;18.26;98624.56;5092254;28;20028;-44